PWSweather.com
Personal Weather Stations
Station Observations
SBERGENWX
Wood Ridge, NJ 07075

Wood Ridge, NJ 07075

Lat: 40.851667, Lon: -74.088131

Elevation: 177

Station Type: Davis Vantage Vue

http://201weather.com/

Latest ConditionsUpdated 4:45:01 PM EDT Wednesday, Apr 24, 2019
Currently Today's Max Today's Min Today's Average
Temperature 69.9°F21.1°C 69.9°F21.1°C 61.6°F16.4°C 64.3°F17.9°C
Dew Point 41.7°F5.4°C 56.9°F13.8°C 40.2°F4.6°C 48.0°F8.9°C
Winds 2.3 mph NNW3.7 kmh NNW 6.9 mph -11.1 kmh - - 1.7 mph 2.7 kmh
Wind Gusts 3.5 mph5.6 kmh 10.4 mph16.7 kmh - -
Humidity 36% 82% 36% 57%
Pressure 29.76 in1007.8 mb 29.78 in1008.5 mb 29.66 in1004.4 mb -
Precipitation - 0.04 in1.0 mm - -
Hour Temp Dew Point Humidity Winds Wind Gusts Pressure Precip Precip Rate Daily Precip Total
04:45 PM 69.9°F21.1°C 41.7°F5.4°C 36% 2.3 mph NNW3.7 kmh NNW 3.5 mph5.6 kmh 29.76 in1007.8 mb - 0.00 in0.0 mm 0.04 in1.0 mm
04:30 PM 69.1°F20.6°C 41.0°F5.0°C 36% 1.2 mph WSW1.9 kmh WSW 1.2 mph1.9 kmh 29.76 in1007.8 mb - 0.00 in0.0 mm 0.04 in1.0 mm
04:15 PM 68.5°F20.3°C 40.5°F4.7°C 36% 2.3 mph NNW3.7 kmh NNW 4.6 mph7.4 kmh 29.76 in1007.8 mb - 0.00 in0.0 mm 0.04 in1.0 mm
04:00 PM 68.4°F20.2°C 41.1°F5.1°C 37% 2.3 mph NW3.7 kmh NW 5.8 mph9.3 kmh 29.76 in1007.8 mb - 0.00 in0.0 mm 0.04 in1.0 mm
03:45 PM 68.4°F20.2°C 40.4°F4.7°C 36% 2.3 mph N3.7 kmh N 4.6 mph7.4 kmh 29.76 in1007.8 mb - 0.00 in0.0 mm 0.04 in1.0 mm
03:30 PM 68.6°F20.3°C 41.3°F5.2°C 37% 2.3 mph NNW3.7 kmh NNW 4.6 mph7.4 kmh 29.76 in1007.8 mb - 0.00 in0.0 mm 0.04 in1.0 mm
03:15 PM 68.0°F20.0°C 41.4°F5.2°C 38% 2.3 mph NNW3.7 kmh NNW 3.5 mph5.6 kmh 29.76 in1007.8 mb - 0.00 in0.0 mm 0.04 in1.0 mm
03:00 PM 67.9°F19.9°C 42.7°F5.9°C 40% 3.5 mph WNW5.6 kmh WNW 5.8 mph9.3 kmh 29.76 in1007.8 mb - 0.00 in0.0 mm 0.04 in1.0 mm
02:45 PM 66.9°F19.4°C 40.5°F4.7°C 38% 2.3 mph W3.7 kmh W 3.5 mph5.6 kmh 29.77 in1008.1 mb - 0.00 in0.0 mm 0.04 in1.0 mm
02:30 PM 66.9°F19.4°C 41.7°F5.4°C 40% 1.2 mph NNW1.9 kmh NNW 2.3 mph3.7 kmh 29.77 in1008.1 mb - 0.00 in0.0 mm 0.04 in1.0 mm
02:15 PM 65.8°F18.8°C 40.2°F4.6°C 39% 6.9 mph WNW11.1 kmh WNW 10.4 mph16.7 kmh 29.77 in1008.1 mb - 0.00 in0.0 mm 0.04 in1.0 mm
02:00 PM 66.3°F19.1°C 40.6°F4.8°C 39% 3.5 mph NW5.6 kmh NW 6.9 mph11.1 kmh 29.77 in1008.1 mb - 0.00 in0.0 mm 0.04 in1.0 mm
01:45 PM 67.2°F19.6°C 42.0°F5.6°C 40% 2.3 mph NW3.7 kmh NW 6.9 mph11.1 kmh 29.77 in1008.1 mb - 0.01 in0.3 mm 0.04 in1.0 mm
01:30 PM 66.7°F19.3°C 40.9°F4.9°C 39% 3.5 mph W5.6 kmh W 9.2 mph14.8 kmh 29.77 in1008.1 mb - 0.01 in0.3 mm 0.04 in1.0 mm
01:15 PM 65.9°F18.8°C 41.5°F5.3°C 41% 3.5 mph NW5.6 kmh NW 5.8 mph9.3 kmh 29.77 in1008.1 mb - 0.01 in0.3 mm 0.04 in1.0 mm
01:00 PM 65.8°F18.8°C 43.3°F6.3°C 44% 1.2 mph W1.9 kmh W 3.5 mph5.6 kmh 29.77 in1008.1 mb - 0.01 in0.3 mm 0.04 in1.0 mm
12:45 PM 64.7°F18.2°C 41.7°F5.4°C 43% 2.3 mph WNW3.7 kmh WNW 5.8 mph9.3 kmh 29.77 in1008.1 mb - 0.00 in0.0 mm 0.03 in0.8 mm
12:30 PM 65.0°F18.3°C 42.5°F5.8°C 44% 1.2 mph WNW1.9 kmh WNW 2.3 mph3.7 kmh 29.77 in1008.1 mb - 0.00 in0.0 mm 0.03 in0.8 mm
12:15 PM 65.0°F18.3°C 41.3°F5.2°C 42% 4.6 mph N7.4 kmh N 5.8 mph9.3 kmh 29.77 in1008.1 mb - 0.00 in0.0 mm 0.03 in0.8 mm
12:00 PM 64.3°F17.9°C 41.9°F5.5°C 44% 2.3 mph N3.7 kmh N 4.6 mph7.4 kmh 29.78 in1008.5 mb - 0.00 in0.0 mm 0.03 in0.8 mm
11:45 AM 63.4°F17.4°C 40.5°F4.7°C 43% 3.5 mph NNW5.6 kmh NNW 5.8 mph9.3 kmh 29.78 in1008.5 mb - 0.00 in0.0 mm 0.03 in0.8 mm
11:30 AM 64.0°F17.8°C 41.6°F5.3°C 44% 1.2 mph WNW1.9 kmh WNW 4.6 mph7.4 kmh 29.77 in1008.1 mb - 0.00 in0.0 mm 0.03 in0.8 mm
11:15 AM 63.5°F17.5°C 41.8°F5.4°C 45% 1.2 mph N1.9 kmh N 3.5 mph5.6 kmh 29.77 in1008.1 mb - 0.00 in0.0 mm 0.03 in0.8 mm
11:00 AM 62.9°F17.2°C 41.2°F5.1°C 45% 2.3 mph NNW3.7 kmh NNW 3.5 mph5.6 kmh 29.77 in1008.1 mb - 0.00 in0.0 mm 0.03 in0.8 mm
10:45 AM 62.7°F17.1°C 40.4°F4.7°C 44% 2.3 mph NW3.7 kmh NW 3.5 mph5.6 kmh 29.77 in1008.1 mb - 0.00 in0.0 mm 0.03 in0.8 mm
10:30 AM 62.4°F16.9°C 40.8°F4.9°C 45% 1.2 mph NW1.9 kmh NW 6.9 mph11.1 kmh 29.77 in1008.1 mb - 0.00 in0.0 mm 0.03 in0.8 mm
10:15 AM 63.0°F17.2°C 40.8°F4.9°C 44% 4.6 mph NNW7.4 kmh NNW 10.4 mph16.7 kmh 29.76 in1007.8 mb - 0.00 in0.0 mm 0.03 in0.8 mm
10:00 AM 62.7°F17.1°C 42.1°F5.6°C 47% 2.3 mph NE3.7 kmh NE 3.5 mph5.6 kmh 29.75 in1007.5 mb - 0.00 in0.0 mm 0.03 in0.8 mm
09:45 AM 62.4°F16.9°C 41.9°F5.5°C 47% 2.3 mph NW3.7 kmh NW 5.8 mph9.3 kmh 29.75 in1007.5 mb - 0.00 in0.0 mm 0.03 in0.8 mm
09:30 AM 62.5°F16.9°C 43.6°F6.4°C 50% 1.2 mph NNW1.9 kmh NNW 3.5 mph5.6 kmh 29.75 in1007.5 mb - 0.00 in0.0 mm 0.03 in0.8 mm
09:15 AM 62.5°F16.9°C 43.1°F6.2°C 49% 3.5 mph NNW5.6 kmh NNW 8.1 mph13.0 kmh 29.75 in1007.5 mb - 0.00 in0.0 mm 0.03 in0.8 mm
09:00 AM 63.0°F17.2°C 43.6°F6.4°C 49% 3.5 mph NNW5.6 kmh NNW 4.6 mph7.4 kmh 29.74 in1007.1 mb - 0.00 in0.0 mm 0.03 in0.8 mm
08:45 AM 61.9°F16.6°C 45.5°F7.5°C 55% 3.5 mph WNW5.6 kmh WNW 5.8 mph9.3 kmh 29.74 in1007.1 mb - 0.00 in0.0 mm 0.03 in0.8 mm
08:30 AM 61.6°F16.4°C 45.3°F7.4°C 55% 3.5 mph WNW5.6 kmh WNW 9.2 mph14.8 kmh 29.74 in1007.1 mb - 0.00 in0.0 mm 0.03 in0.8 mm
08:15 AM 62.3°F16.8°C 46.4°F8.0°C 56% 3.5 mph NW5.6 kmh NW 4.6 mph7.4 kmh 29.73 in1006.8 mb - 0.00 in0.0 mm 0.03 in0.8 mm
08:00 AM 62.3°F16.8°C 48.7°F9.3°C 61% 1.2 mph WNW1.9 kmh WNW 4.6 mph7.4 kmh 29.73 in1006.8 mb - 0.00 in0.0 mm 0.03 in0.8 mm
07:45 AM 62.5°F16.9°C 49.7°F9.8°C 63% 2.3 mph W3.7 kmh W 8.1 mph13.0 kmh 29.72 in1006.4 mb - 0.00 in0.0 mm 0.03 in0.8 mm
07:30 AM 62.3°F16.8°C 51.2°F10.7°C 67% 1.2 mph N1.9 kmh N 3.5 mph5.6 kmh 29.72 in1006.4 mb - 0.00 in0.0 mm 0.03 in0.8 mm
07:15 AM 62.3°F16.8°C 53.2°F11.8°C 72% Calm Calm 1.2 mph1.9 kmh 29.71 in1006.1 mb - 0.00 in0.0 mm 0.03 in0.8 mm
07:00 AM 62.0°F16.7°C 52.5°F11.4°C 71% 2.3 mph W3.7 kmh W 3.5 mph5.6 kmh 29.70 in1005.8 mb - 0.00 in0.0 mm 0.03 in0.8 mm
06:45 AM 63.5°F17.5°C 55.1°F12.8°C 74% Calm Calm -- 29.69 in1005.4 mb - 0.00 in0.0 mm 0.03 in0.8 mm
06:30 AM 63.5°F17.5°C 55.1°F12.8°C 74% Calm Calm -- 29.68 in1005.1 mb - 0.00 in0.0 mm 0.03 in0.8 mm
06:15 AM 63.5°F17.5°C 55.1°F12.8°C 74% Calm Calm -- 29.68 in1005.1 mb - 0.00 in0.0 mm 0.03 in0.8 mm
06:00 AM 63.5°F17.5°C 55.1°F12.8°C 74% Calm Calm -- 29.68 in1005.1 mb - 0.00 in0.0 mm 0.03 in0.8 mm
05:45 AM 63.5°F17.5°C 55.1°F12.8°C 74% Calm Calm -- 29.68 in1005.1 mb - 0.00 in0.0 mm 0.03 in0.8 mm
05:30 AM 63.5°F17.5°C 55.1°F12.8°C 74% Calm Calm -- 29.67 in1004.7 mb - 0.00 in0.0 mm 0.03 in0.8 mm
05:15 AM 63.5°F17.5°C 55.1°F12.8°C 74% Calm Calm -- 29.67 in1004.7 mb - 0.00 in0.0 mm 0.03 in0.8 mm
05:00 AM 63.5°F17.5°C 55.1°F12.8°C 74% Calm Calm -- 29.67 in1004.7 mb - 0.00 in0.0 mm 0.03 in0.8 mm
04:45 AM 63.5°F17.5°C 55.1°F12.8°C 74% Calm Calm -- 29.67 in1004.7 mb - 0.00 in0.0 mm 0.03 in0.8 mm
04:30 AM 63.0°F17.2°C 54.2°F12.3°C 73% 1.2 mph WSW1.9 kmh WSW 3.5 mph5.6 kmh 29.66 in1004.4 mb - 0.00 in0.0 mm 0.03 in0.8 mm
04:15 AM 63.2°F17.3°C 54.4°F12.4°C 73% Calm Calm 2.3 mph3.7 kmh 29.67 in1004.7 mb - 0.00 in0.0 mm 0.03 in0.8 mm
04:00 AM 63.2°F17.3°C 54.4°F12.4°C 73% 1.2 mph WSW1.9 kmh WSW 3.5 mph5.6 kmh 29.68 in1005.1 mb - 0.00 in0.0 mm 0.03 in0.8 mm
03:45 AM 63.6°F17.6°C 54.4°F12.4°C 72% 1.2 mph W1.9 kmh W 2.3 mph3.7 kmh 29.67 in1004.7 mb - 0.00 in0.0 mm 0.03 in0.8 mm
03:30 AM 64.1°F17.8°C 54.5°F12.5°C 71% 1.2 mph WSW1.9 kmh WSW 2.3 mph3.7 kmh 29.67 in1004.7 mb - 0.00 in0.0 mm 0.03 in0.8 mm
03:15 AM 64.4°F18.0°C 54.1°F12.3°C 69% 1.2 mph SW1.9 kmh SW 2.3 mph3.7 kmh 29.67 in1004.7 mb - 0.00 in0.0 mm 0.03 in0.8 mm
03:00 AM 64.7°F18.2°C 54.3°F12.4°C 69% 2.3 mph SSW3.7 kmh SSW 4.6 mph7.4 kmh 29.68 in1005.1 mb - 0.00 in0.0 mm 0.03 in0.8 mm
02:45 AM 64.5°F18.1°C 54.5°F12.5°C 70% 1.2 mph SW1.9 kmh SW 3.5 mph5.6 kmh 29.68 in1005.1 mb - 0.00 in0.0 mm 0.03 in0.8 mm
02:30 AM 63.9°F17.7°C 55.4°F13.0°C 74% Calm Calm 1.2 mph1.9 kmh 29.68 in1005.1 mb - 0.00 in0.0 mm 0.03 in0.8 mm
02:15 AM 63.4°F17.4°C 55.7°F13.2°C 76% Calm Calm -- 29.69 in1005.4 mb - 0.00 in0.0 mm 0.03 in0.8 mm
02:00 AM 62.5°F16.9°C 56.9°F13.8°C 82% Calm Calm 1.2 mph1.9 kmh 29.69 in1005.4 mb - 0.02 in0.5 mm 0.03 in0.8 mm
01:45 AM 63.3°F17.4°C 56.7°F13.7°C 79% Calm Calm -- 29.70 in1005.8 mb - 0.02 in0.5 mm 0.03 in0.8 mm
01:30 AM 64.4°F18.0°C 55.2°F12.9°C 72% 1.2 mph WNW1.9 kmh WNW 2.3 mph3.7 kmh 29.70 in1005.8 mb - 0.02 in0.5 mm 0.03 in0.8 mm
01:15 AM 63.9°F17.7°C 55.4°F13.0°C 74% 2.3 mph SW3.7 kmh SW 3.5 mph5.6 kmh 29.70 in1005.8 mb - 0.03 in0.8 mm 0.03 in0.8 mm
01:00 AM 63.9°F17.7°C 55.8°F13.2°C 75% 1.2 mph SW1.9 kmh SW 3.5 mph5.6 kmh 29.71 in1006.1 mb - 0.01 in0.3 mm 0.01 in0.3 mm
12:45 AM 63.9°F17.7°C 55.4°F13.0°C 74% Calm Calm 2.3 mph3.7 kmh 29.72 in1006.4 mb - 0.01 in0.3 mm 0.01 in0.3 mm
12:30 AM 64.1°F17.8°C 55.3°F12.9°C 73% 1.2 mph SSW1.9 kmh SSW 2.3 mph3.7 kmh 29.72 in1006.4 mb - 0.03 in0.8 mm 0.01 in0.3 mm
12:15 AM 63.2°F17.3°C 55.5°F13.1°C 76% 1.2 mph SSW1.9 kmh SSW 2.3 mph3.7 kmh 29.72 in1006.4 mb - 0.02 in0.5 mm 0.04 in1.0 mm
12:00 AM 63.2°F17.3°C 55.9°F13.3°C 77% 1.2 mph SW1.9 kmh SW 4.6 mph7.4 kmh 29.74 in1007.1 mb - 0.02 in0.5 mm 0.02 in0.5 mm